This is the latest recevied weather packets stored in our database for station/object KE0QIB. If no packets are shown the sender has not sent any weather packets the latest 10 day(s).
| Time | Temp. | Humidity | Pressure | Rain* | Wind** | Luminosity | Snow |
|---|---|---|---|---|---|---|---|
| 1777843918 | 11.11° C | 88% | 995.5 hPa | 0.76 mm | - | - | - |
| 1777843618 | 11.11° C | 89% | 995.5 hPa | 1.27 mm | - | - | - |
| 1777843318 | 11.11° C | 89% | 995.3 hPa | 1.78 mm | - | - | - |
| 1777843018 | 10.56° C | 89% | 995.3 hPa | 1.78 mm | - | - | - |
| 1777842718 | 10.56° C | 89% | 995.3 hPa | 1.78 mm | - | - | - |
| 1777842418 | 10.56° C | 88% | 996.3 hPa | 1.78 mm | - | - | - |
| 1777842118 | 10.56° C | 87% | 996.3 hPa | 1.78 mm | - | - | - |
| 1777841818 | 10.56° C | 85% | 996.3 hPa | 1.78 mm | - | - | - |
| 1777841518 | 11.11° C | 84% | 995.8 hPa | 1.78 mm | - | - | - |
| 1777841218 | 11.11° C | 81% | 995.8 hPa | 1.78 mm | - | - | - |
| 1777840918 | 11.67° C | 77% | 995.8 hPa | 1.78 mm | - | - | - |
| 1777840618 | 12.78° C | 72% | 995.6 hPa | 1.52 mm | - | - | - |
| 1777840318 | 13.33° C | 68% | 995.6 hPa | 1.02 mm | - | - | - |
| 1777840018 | 14.44° C | 65% | 995.6 hPa | 1.02 mm | - | - | - |
| 1777839718 | 15.56° C | 54% | 994.3 hPa | 0 mm | - | - | - |
| 1777839418 | 16.11° C | 49% | 994.3 hPa | 0 mm | - | - | - |
| 1777839118 | 16.11° C | 47% | 994.3 hPa | 0 mm | - | - | - |
| 1777838818 | 16.67° C | 46% | 994.4 hPa | 0 mm | - | - | - |
| 1777838518 | 17.22° C | 46% | 994.4 hPa | 0 mm | - | - | - |
| 1777838218 | 17.22° C | 48% | 994.4 hPa | 0 mm | - | - | - |
| 1777837918 | 16.67° C | 48% | 994.8 hPa | 0 mm | - | - | - |
| 1777837618 | 16.67° C | 50% | 994.8 hPa | 0 mm | - | - | - |
| 1777837318 | 16.11° C | 50% | 994.8 hPa | 0 mm | - | - | - |
| 1777837018 | 16.11° C | 50% | 994.9 hPa | 0 mm | - | - | - |
| 1777836718 | 16.11° C | 53% | 994.9 hPa | 0 mm | - | - | - |
* Rain latest hour (hover to see other rain measurements)
** Current wind speed in m/s (hover to see current wind gust speed)